sensor_id;sensor_type;location;lat;lon;timestamp;P1;durP1;ratioP1;P2;durP2;ratioP2
80926;SDS011;70385;44.538;18.532;2024-01-07T00:01:02;229.25;;;101.55;;
80926;SDS011;70385;44.538;18.532;2024-01-07T00:03:29;216.18;;;104.95;;
80926;SDS011;70385;44.538;18.532;2024-01-07T00:05:56;286.35;;;128.55;;
80926;SDS011;70385;44.538;18.532;2024-01-07T00:08:23;306.27;;;136.88;;
80926;SDS011;70385;44.538;18.532;2024-01-07T00:10:49;293.13;;;136.13;;
80926;SDS011;70385;44.538;18.532;2024-01-07T00:13:16;311.02;;;138.45;;
80926;SDS011;70385;44.538;18.532;2024-01-07T00:15:43;335.45;;;142.80;;
80926;SDS011;70385;44.538;18.532;2024-01-07T00:18:12;264.90;;;121.70;;
80926;SDS011;70385;44.538;18.532;2024-01-07T00:20:39;320.52;;;135.55;;
80926;SDS011;70385;44.538;18.532;2024-01-07T00:23:05;390.42;;;156.23;;
80926;SDS011;70385;44.538;18.532;2024-01-07T00:25:31;348.60;;;145.40;;
80926;SDS011;70385;44.538;18.532;2024-01-07T00:27:57;248.95;;;113.10;;
80926;SDS011;70385;44.538;18.532;2024-01-07T00:30:23;254.38;;;113.88;;
80926;SDS011;70385;44.538;18.532;2024-01-07T00:32:49;251.35;;;114.05;;
80926;SDS011;70385;44.538;18.532;2024-01-07T00:35:16;253.18;;;119.30;;
80926;SDS011;70385;44.538;18.532;2024-01-07T00:37:42;272.90;;;124.63;;
80926;SDS011;70385;44.538;18.532;2024-01-07T00:40:09;320.13;;;141.98;;
80926;SDS011;70385;44.538;18.532;2024-01-07T00:42:35;324.45;;;147.05;;
80926;SDS011;70385;44.538;18.532;2024-01-07T00:45:08;342.67;;;152.15;;
80926;SDS011;70385;44.538;18.532;2024-01-07T00:47:35;343.13;;;148.35;;
80926;SDS011;70385;44.538;18.532;2024-01-07T00:50:01;356.95;;;157.07;;
80926;SDS011;70385;44.538;18.532;2024-01-07T00:52:27;337.00;;;139.90;;
80926;SDS011;70385;44.538;18.532;2024-01-07T00:54:53;245.07;;;115.45;;
80926;SDS011;70385;44.538;18.532;2024-01-07T00:57:19;312.50;;;135.32;;
80926;SDS011;70385;44.538;18.532;2024-01-07T00:59:45;277.88;;;125.20;;
80926;SDS011;70385;44.538;18.532;2024-01-07T01:02:11;287.80;;;126.03;;
80926;SDS011;70385;44.538;18.532;2024-01-07T01:04:38;290.90;;;129.25;;
80926;SDS011;70385;44.538;18.532;2024-01-07T01:07:05;291.63;;;127.00;;
80926;SDS011;70385;44.538;18.532;2024-01-07T01:09:33;296.63;;;130.63;;
80926;SDS011;70385;44.538;18.532;2024-01-07T01:11:59;297.38;;;129.27;;
80926;SDS011;70385;44.538;18.532;2024-01-07T01:14:25;293.45;;;129.48;;
80926;SDS011;70385;44.538;18.532;2024-01-07T01:16:52;334.90;;;147.00;;
80926;SDS011;70385;44.538;18.532;2024-01-07T01:19:18;321.95;;;143.43;;
80926;SDS011;70385;44.538;18.532;2024-01-07T01:21:43;281.48;;;124.60;;
80926;SDS011;70385;44.538;18.532;2024-01-07T01:24:09;219.45;;;103.35;;
80926;SDS011;70385;44.538;18.532;2024-01-07T01:26:36;249.05;;;114.05;;
80926;SDS011;70385;44.538;18.532;2024-01-07T01:29:05;228.57;;;108.28;;
80926;SDS011;70385;44.538;18.532;2024-01-07T01:31:30;250.25;;;112.05;;
80926;SDS011;70385;44.538;18.532;2024-01-07T01:33:57;225.07;;;104.65;;
80926;SDS011;70385;44.538;18.532;2024-01-07T01:36:24;240.30;;;107.85;;
80926;SDS011;70385;44.538;18.532;2024-01-07T01:38:49;222.82;;;102.03;;
80926;SDS011;70385;44.538;18.532;2024-01-07T01:41:16;215.90;;;98.93;;
80926;SDS011;70385;44.538;18.532;2024-01-07T01:43:42;220.05;;;100.68;;
80926;SDS011;70385;44.538;18.532;2024-01-07T01:46:08;181.57;;;88.40;;
80926;SDS011;70385;44.538;18.532;2024-01-07T01:48:35;195.63;;;93.78;;
80926;SDS011;70385;44.538;18.532;2024-01-07T01:51:01;193.18;;;90.60;;
80926;SDS011;70385;44.538;18.532;2024-01-07T01:53:28;190.27;;;90.70;;
80926;SDS011;70385;44.538;18.532;2024-01-07T01:55:55;206.90;;;93.60;;
80926;SDS011;70385;44.538;18.532;2024-01-07T01:58:22;209.93;;;94.43;;
80926;SDS011;70385;44.538;18.532;2024-01-07T02:00:49;185.45;;;87.88;;
80926;SDS011;70385;44.538;18.532;2024-01-07T02:03:18;171.32;;;81.75;;
80926;SDS011;70385;44.538;18.532;2024-01-07T02:05:44;141.30;;;69.40;;
80926;SDS011;70385;44.538;18.532;2024-01-07T02:08:10;141.15;;;65.80;;
80926;SDS011;70385;44.538;18.532;2024-01-07T02:10:37;140.50;;;66.43;;
80926;SDS011;70385;44.538;18.532;2024-01-07T02:13:03;132.88;;;60.53;;
80926;SDS011;70385;44.538;18.532;2024-01-07T02:15:29;115.32;;;56.33;;
80926;SDS011;70385;44.538;18.532;2024-01-07T02:17:55;100.30;;;49.38;;
80926;SDS011;70385;44.538;18.532;2024-01-07T02:20:22;112.18;;;55.20;;
80926;SDS011;70385;44.538;18.532;2024-01-07T02:22:48;112.35;;;53.58;;
80926;SDS011;70385;44.538;18.532;2024-01-07T02:25:14;107.22;;;50.22;;
80926;SDS011;70385;44.538;18.532;2024-01-07T02:27:40;111.00;;;53.13;;
80926;SDS011;70385;44.538;18.532;2024-01-07T02:30:06;113.80;;;54.22;;
80926;SDS011;70385;44.538;18.532;2024-01-07T02:32:32;93.45;;;48.17;;
80926;SDS011;70385;44.538;18.532;2024-01-07T02:35:00;92.32;;;47.13;;
80926;SDS011;70385;44.538;18.532;2024-01-07T02:37:26;95.63;;;47.40;;
80926;SDS011;70385;44.538;18.532;2024-01-07T02:39:52;91.47;;;48.40;;
80926;SDS011;70385;44.538;18.532;2024-01-07T02:42:18;97.35;;;50.08;;
80926;SDS011;70385;44.538;18.532;2024-01-07T02:44:44;98.72;;;50.17;;
80926;SDS011;70385;44.538;18.532;2024-01-07T02:47:09;96.18;;;47.13;;
80926;SDS011;70385;44.538;18.532;2024-01-07T02:49:35;106.03;;;51.17;;
80926;SDS011;70385;44.538;18.532;2024-01-07T02:52:01;100.88;;;49.40;;
80926;SDS011;70385;44.538;18.532;2024-01-07T02:54:27;104.22;;;51.20;;
80926;SDS011;70385;44.538;18.532;2024-01-07T02:56:53;115.82;;;54.10;;
80926;SDS011;70385;44.538;18.532;2024-01-07T02:59:19;91.50;;;46.38;;
80926;SDS011;70385;44.538;18.532;2024-01-07T03:01:46;82.50;;;42.97;;
80926;SDS011;70385;44.538;18.532;2024-01-07T03:04:14;83.68;;;40.30;;
80926;SDS011;70385;44.538;18.532;2024-01-07T03:06:41;80.50;;;42.42;;
80926;SDS011;70385;44.538;18.532;2024-01-07T03:09:07;79.55;;;41.92;;
80926;SDS011;70385;44.538;18.532;2024-01-07T03:11:33;80.82;;;40.60;;
80926;SDS011;70385;44.538;18.532;2024-01-07T03:14:04;78.28;;;39.70;;
80926;SDS011;70385;44.538;18.532;2024-01-07T03:16:30;77.85;;;40.58;;
80926;SDS011;70385;44.538;18.532;2024-01-07T03:18:56;77.97;;;42.00;;
80926;SDS011;70385;44.538;18.532;2024-01-07T03:21:22;82.72;;;41.75;;
80926;SDS011;70385;44.538;18.532;2024-01-07T03:23:50;83.15;;;43.58;;
80926;SDS011;70385;44.538;18.532;2024-01-07T03:26:17;81.28;;;42.28;;
80926;SDS011;70385;44.538;18.532;2024-01-07T03:28:45;104.13;;;48.72;;
80926;SDS011;70385;44.538;18.532;2024-01-07T03:31:12;99.47;;;49.65;;
80926;SDS011;70385;44.538;18.532;2024-01-07T03:33:40;107.38;;;51.58;;
80926;SDS011;70385;44.538;18.532;2024-01-07T03:36:10;112.38;;;54.47;;
80926;SDS011;70385;44.538;18.532;2024-01-07T03:38:38;90.00;;;46.35;;
80926;SDS011;70385;44.538;18.532;2024-01-07T03:41:06;95.43;;;48.50;;
80926;SDS011;70385;44.538;18.532;2024-01-07T03:43:34;99.75;;;46.40;;
80926;SDS011;70385;44.538;18.532;2024-01-07T03:46:00;92.95;;;48.63;;
80926;SDS011;70385;44.538;18.532;2024-01-07T03:48:26;85.68;;;43.28;;
80926;SDS011;70385;44.538;18.532;2024-01-07T03:50:52;90.95;;;44.83;;
80926;SDS011;70385;44.538;18.532;2024-01-07T03:53:19;80.03;;;41.53;;
80926;SDS011;70385;44.538;18.532;2024-01-07T03:55:46;90.47;;;45.20;;
80926;SDS011;70385;44.538;18.532;2024-01-07T03:58:12;86.32;;;43.55;;
80926;SDS011;70385;44.538;18.532;2024-01-07T04:00:38;91.45;;;46.00;;
80926;SDS011;70385;44.538;18.532;2024-01-07T04:03:04;80.90;;;42.40;;
80926;SDS011;70385;44.538;18.532;2024-01-07T04:05:30;92.68;;;46.85;;
80926;SDS011;70385;44.538;18.532;2024-01-07T04:07:56;90.32;;;47.45;;
80926;SDS011;70385;44.538;18.532;2024-01-07T04:10:21;80.18;;;42.10;;
80926;SDS011;70385;44.538;18.532;2024-01-07T04:12:48;79.47;;;42.33;;
80926;SDS011;70385;44.538;18.532;2024-01-07T04:15:13;93.80;;;46.55;;
80926;SDS011;70385;44.538;18.532;2024-01-07T04:17:39;97.35;;;46.28;;
80926;SDS011;70385;44.538;18.532;2024-01-07T04:20:05;99.03;;;44.88;;
80926;SDS011;70385;44.538;18.532;2024-01-07T04:22:33;93.57;;;43.25;;
80926;SDS011;70385;44.538;18.532;2024-01-07T04:24:58;86.75;;;43.78;;
80926;SDS011;70385;44.538;18.532;2024-01-07T04:27:25;79.20;;;38.78;;
80926;SDS011;70385;44.538;18.532;2024-01-07T04:29:51;82.20;;;37.97;;
80926;SDS011;70385;44.538;18.532;2024-01-07T04:32:17;79.07;;;34.85;;
80926;SDS011;70385;44.538;18.532;2024-01-07T04:34:43;79.28;;;38.45;;
80926;SDS011;70385;44.538;18.532;2024-01-07T04:37:09;76.47;;;35.28;;
80926;SDS011;70385;44.538;18.532;2024-01-07T04:39:34;82.70;;;36.45;;
80926;SDS011;70385;44.538;18.532;2024-01-07T04:42:02;76.18;;;35.63;;
80926;SDS011;70385;44.538;18.532;2024-01-07T04:44:28;74.03;;;35.40;;
80926;SDS011;70385;44.538;18.532;2024-01-07T04:46:55;75.45;;;34.42;;
80926;SDS011;70385;44.538;18.532;2024-01-07T04:49:21;78.95;;;37.30;;
80926;SDS011;70385;44.538;18.532;2024-01-07T04:51:46;73.70;;;36.00;;
80926;SDS011;70385;44.538;18.532;2024-01-07T04:54:12;74.63;;;36.03;;
80926;SDS011;70385;44.538;18.532;2024-01-07T04:56:39;75.13;;;36.30;;
80926;SDS011;70385;44.538;18.532;2024-01-07T04:59:05;86.75;;;38.65;;
80926;SDS011;70385;44.538;18.532;2024-01-07T05:01:34;104.95;;;52.65;;
80926;SDS011;70385;44.538;18.532;2024-01-07T05:04:01;104.35;;;50.90;;
80926;SDS011;70385;44.538;18.532;2024-01-07T05:06:28;117.47;;;57.50;;
80926;SDS011;70385;44.538;18.532;2024-01-07T05:08:54;122.55;;;57.92;;
80926;SDS011;70385;44.538;18.532;2024-01-07T05:11:20;115.80;;;56.38;;
80926;SDS011;70385;44.538;18.532;2024-01-07T05:13:49;110.75;;;53.85;;
80926;SDS011;70385;44.538;18.532;2024-01-07T05:16:19;100.00;;;49.78;;
80926;SDS011;70385;44.538;18.532;2024-01-07T05:18:45;95.05;;;48.35;;
80926;SDS011;70385;44.538;18.532;2024-01-07T05:21:14;105.30;;;48.10;;
80926;SDS011;70385;44.538;18.532;2024-01-07T05:23:41;103.28;;;48.75;;
80926;SDS011;70385;44.538;18.532;2024-01-07T05:26:07;107.82;;;51.38;;
80926;SDS011;70385;44.538;18.532;2024-01-07T05:28:33;99.40;;;48.75;;
80926;SDS011;70385;44.538;18.532;2024-01-07T05:30:58;89.20;;;41.90;;
80926;SDS011;70385;44.538;18.532;2024-01-07T05:33:24;86.85;;;43.55;;
80926;SDS011;70385;44.538;18.532;2024-01-07T05:35:52;97.30;;;46.28;;
80926;SDS011;70385;44.538;18.532;2024-01-07T05:38:18;91.97;;;45.80;;
80926;SDS011;70385;44.538;18.532;2024-01-07T05:40:45;88.75;;;44.88;;
80926;SDS011;70385;44.538;18.532;2024-01-07T05:43:11;98.20;;;45.58;;
80926;SDS011;70385;44.538;18.532;2024-01-07T05:45:37;98.07;;;45.47;;
80926;SDS011;70385;44.538;18.532;2024-01-07T05:48:03;98.88;;;47.13;;
80926;SDS011;70385;44.538;18.532;2024-01-07T05:50:29;104.72;;;48.08;;
80926;SDS011;70385;44.538;18.532;2024-01-07T05:52:56;93.13;;;45.90;;
80926;SDS011;70385;44.538;18.532;2024-01-07T05:55:22;82.45;;;39.90;;
80926;SDS011;70385;44.538;18.532;2024-01-07T05:57:49;81.28;;;38.65;;
80926;SDS011;70385;44.538;18.532;2024-01-07T06:00:15;72.35;;;35.75;;
80926;SDS011;70385;44.538;18.532;2024-01-07T06:02:41;67.80;;;35.17;;
80926;SDS011;70385;44.538;18.532;2024-01-07T06:05:07;69.72;;;33.83;;
80926;SDS011;70385;44.538;18.532;2024-01-07T06:07:33;66.82;;;29.73;;
80926;SDS011;70385;44.538;18.532;2024-01-07T06:09:59;66.03;;;32.90;;
80926;SDS011;70385;44.538;18.532;2024-01-07T06:12:25;70.97;;;34.28;;
80926;SDS011;70385;44.538;18.532;2024-01-07T06:14:51;71.00;;;33.67;;
80926;SDS011;70385;44.538;18.532;2024-01-07T06:17:19;72.18;;;33.20;;
80926;SDS011;70385;44.538;18.532;2024-01-07T06:19:44;63.45;;;32.70;;
80926;SDS011;70385;44.538;18.532;2024-01-07T06:22:10;76.45;;;36.30;;
80926;SDS011;70385;44.538;18.532;2024-01-07T06:24:36;79.97;;;37.60;;
80926;SDS011;70385;44.538;18.532;2024-01-07T06:27:02;72.25;;;37.65;;
80926;SDS011;70385;44.538;18.532;2024-01-07T06:29:29;69.47;;;34.95;;
80926;SDS011;70385;44.538;18.532;2024-01-07T06:31:55;65.00;;;33.20;;
80926;SDS011;70385;44.538;18.532;2024-01-07T06:34:21;59.03;;;29.80;;
80926;SDS011;70385;44.538;18.532;2024-01-07T06:36:46;61.75;;;31.00;;
80926;SDS011;70385;44.538;18.532;2024-01-07T06:39:12;68.72;;;32.05;;
80926;SDS011;70385;44.538;18.532;2024-01-07T06:41:38;71.35;;;33.40;;
80926;SDS011;70385;44.538;18.532;2024-01-07T06:44:04;65.22;;;31.50;;
80926;SDS011;70385;44.538;18.532;2024-01-07T06:46:30;62.70;;;33.55;;
80926;SDS011;70385;44.538;18.532;2024-01-07T06:48:55;68.30;;;32.17;;
80926;SDS011;70385;44.538;18.532;2024-01-07T06:51:21;64.78;;;32.42;;
80926;SDS011;70385;44.538;18.532;2024-01-07T06:53:47;60.88;;;29.58;;
80926;SDS011;70385;44.538;18.532;2024-01-07T06:56:14;60.83;;;30.25;;
80926;SDS011;70385;44.538;18.532;2024-01-07T06:58:41;59.33;;;30.10;;
80926;SDS011;70385;44.538;18.532;2024-01-07T07:01:07;63.83;;;33.92;;
80926;SDS011;70385;44.538;18.532;2024-01-07T07:03:32;60.22;;;30.58;;
80926;SDS011;70385;44.538;18.532;2024-01-07T07:05:58;72.07;;;34.28;;
80926;SDS011;70385;44.538;18.532;2024-01-07T07:08:24;58.08;;;30.30;;
80926;SDS011;70385;44.538;18.532;2024-01-07T07:10:50;66.30;;;33.75;;
80926;SDS011;70385;44.538;18.532;2024-01-07T07:13:16;63.15;;;31.15;;
80926;SDS011;70385;44.538;18.532;2024-01-07T07:15:43;69.85;;;34.83;;
80926;SDS011;70385;44.538;18.532;2024-01-07T07:18:11;65.53;;;33.38;;
80926;SDS011;70385;44.538;18.532;2024-01-07T07:20:37;58.15;;;31.58;;
80926;SDS011;70385;44.538;18.532;2024-01-07T07:23:03;62.65;;;33.65;;
80926;SDS011;70385;44.538;18.532;2024-01-07T07:25:29;65.85;;;33.42;;
80926;SDS011;70385;44.538;18.532;2024-01-07T07:27:55;73.63;;;35.60;;
80926;SDS011;70385;44.538;18.532;2024-01-07T07:30:21;65.55;;;34.13;;
80926;SDS011;70385;44.538;18.532;2024-01-07T07:32:47;62.50;;;33.70;;
80926;SDS011;70385;44.538;18.532;2024-01-07T07:35:13;62.67;;;31.23;;
80926;SDS011;70385;44.538;18.532;2024-01-07T07:37:40;59.13;;;32.05;;
80926;SDS011;70385;44.538;18.532;2024-01-07T07:40:06;55.03;;;30.50;;
80926;SDS011;70385;44.538;18.532;2024-01-07T07:42:38;58.75;;;31.52;;
80926;SDS011;70385;44.538;18.532;2024-01-07T07:45:08;62.00;;;31.42;;
80926;SDS011;70385;44.538;18.532;2024-01-07T07:47:34;55.13;;;30.25;;
80926;SDS011;70385;44.538;18.532;2024-01-07T07:50:02;69.32;;;34.20;;
80926;SDS011;70385;44.538;18.532;2024-01-07T07:52:28;68.22;;;34.83;;
80926;SDS011;70385;44.538;18.532;2024-01-07T07:54:54;65.78;;;35.35;;
80926;SDS011;70385;44.538;18.532;2024-01-07T07:57:21;70.20;;;36.05;;
80926;SDS011;70385;44.538;18.532;2024-01-07T07:59:50;66.30;;;33.10;;
80926;SDS011;70385;44.538;18.532;2024-01-07T08:02:16;71.68;;;37.65;;
80926;SDS011;70385;44.538;18.532;2024-01-07T08:04:43;79.85;;;37.50;;
80926;SDS011;70385;44.538;18.532;2024-01-07T08:07:09;67.72;;;36.22;;
80926;SDS011;70385;44.538;18.532;2024-01-07T08:09:36;63.25;;;31.88;;
80926;SDS011;70385;44.538;18.532;2024-01-07T08:12:04;73.38;;;38.55;;
80926;SDS011;70385;44.538;18.532;2024-01-07T08:14:31;66.88;;;35.90;;
80926;SDS011;70385;44.538;18.532;2024-01-07T08:16:58;70.88;;;38.35;;
80926;SDS011;70385;44.538;18.532;2024-01-07T08:19:24;73.35;;;38.85;;
80926;SDS011;70385;44.538;18.532;2024-01-07T08:21:50;71.70;;;37.58;;
80926;SDS011;70385;44.538;18.532;2024-01-07T08:24:18;82.18;;;43.08;;
80926;SDS011;70385;44.538;18.532;2024-01-07T08:26:44;76.25;;;39.28;;
80926;SDS011;70385;44.538;18.532;2024-01-07T08:29:10;78.32;;;38.00;;
80926;SDS011;70385;44.538;18.532;2024-01-07T08:31:35;72.82;;;38.85;;
80926;SDS011;70385;44.538;18.532;2024-01-07T08:34:01;67.88;;;35.90;;
80926;SDS011;70385;44.538;18.532;2024-01-07T08:36:28;63.70;;;32.20;;
80926;SDS011;70385;44.538;18.532;2024-01-07T08:38:55;67.15;;;35.88;;
80926;SDS011;70385;44.538;18.532;2024-01-07T08:41:21;73.10;;;37.28;;
80926;SDS011;70385;44.538;18.532;2024-01-07T08:43:47;54.05;;;26.83;;
80926;SDS011;70385;44.538;18.532;2024-01-07T08:46:15;61.35;;;31.13;;
80926;SDS011;70385;44.538;18.532;2024-01-07T08:48:42;66.65;;;33.25;;
80926;SDS011;70385;44.538;18.532;2024-01-07T08:51:08;56.80;;;29.73;;
80926;SDS011;70385;44.538;18.532;2024-01-07T08:53:34;52.25;;;26.88;;
80926;SDS011;70385;44.538;18.532;2024-01-07T08:55:59;59.03;;;29.80;;
80926;SDS011;70385;44.538;18.532;2024-01-07T08:58:31;59.53;;;34.03;;
80926;SDS011;70385;44.538;18.532;2024-01-07T09:01:28;64.15;;;36.83;;
80926;SDS011;70385;44.538;18.532;2024-01-07T09:03:54;59.55;;;32.00;;
80926;SDS011;70385;44.538;18.532;2024-01-07T09:06:20;52.97;;;28.58;;
80926;SDS011;70385;44.538;18.532;2024-01-07T09:08:46;62.10;;;31.15;;
80926;SDS011;70385;44.538;18.532;2024-01-07T09:11:12;57.25;;;30.20;;
80926;SDS011;70385;44.538;18.532;2024-01-07T09:13:38;56.78;;;30.08;;
80926;SDS011;70385;44.538;18.532;2024-01-07T09:16:05;59.65;;;30.45;;
80926;SDS011;70385;44.538;18.532;2024-01-07T09:18:31;66.47;;;31.08;;
80926;SDS011;70385;44.538;18.532;2024-01-07T09:20:57;71.22;;;35.35;;
80926;SDS011;70385;44.538;18.532;2024-01-07T09:23:24;51.55;;;26.08;;
80926;SDS011;70385;44.538;18.532;2024-01-07T09:25:52;59.83;;;31.10;;
80926;SDS011;70385;44.538;18.532;2024-01-07T09:28:18;58.15;;;30.55;;
80926;SDS011;70385;44.538;18.532;2024-01-07T09:30:47;67.75;;;33.67;;
80926;SDS011;70385;44.538;18.532;2024-01-07T09:33:13;68.15;;;36.05;;
80926;SDS011;70385;44.538;18.532;2024-01-07T09:35:40;71.65;;;36.60;;
80926;SDS011;70385;44.538;18.532;2024-01-07T09:38:11;68.82;;;35.53;;
80926;SDS011;70385;44.538;18.532;2024-01-07T09:40:38;58.83;;;31.15;;
80926;SDS011;70385;44.538;18.532;2024-01-07T09:43:05;59.45;;;31.63;;
80926;SDS011;70385;44.538;18.532;2024-01-07T09:45:41;71.47;;;33.85;;
80926;SDS011;70385;44.538;18.532;2024-01-07T09:48:10;67.65;;;34.78;;
80926;SDS011;70385;44.538;18.532;2024-01-07T09:50:36;65.13;;;35.25;;
80926;SDS011;70385;44.538;18.532;2024-01-07T09:53:02;68.55;;;35.40;;
80926;SDS011;70385;44.538;18.532;2024-01-07T09:55:34;77.80;;;38.33;;
80926;SDS011;70385;44.538;18.532;2024-01-07T09:58:11;74.95;;;38.50;;
80926;SDS011;70385;44.538;18.532;2024-01-07T10:00:37;79.15;;;42.30;;
80926;SDS011;70385;44.538;18.532;2024-01-07T10:03:04;70.68;;;36.70;;
80926;SDS011;70385;44.538;18.532;2024-01-07T10:05:30;70.97;;;35.38;;
80926;SDS011;70385;44.538;18.532;2024-01-07T10:07:56;56.33;;;31.70;;
80926;SDS011;70385;44.538;18.532;2024-01-07T10:10:25;59.25;;;31.65;;
80926;SDS011;70385;44.538;18.532;2024-01-07T10:12:52;56.80;;;29.92;;
80926;SDS011;70385;44.538;18.532;2024-01-07T10:15:18;74.10;;;39.00;;
80926;SDS011;70385;44.538;18.532;2024-01-07T10:17:45;84.90;;;43.58;;
80926;SDS011;70385;44.538;18.532;2024-01-07T10:20:11;67.07;;;36.50;;
80926;SDS011;70385;44.538;18.532;2024-01-07T10:22:38;63.97;;;34.35;;
80926;SDS011;70385;44.538;18.532;2024-01-07T10:25:05;73.95;;;37.65;;
80926;SDS011;70385;44.538;18.532;2024-01-07T10:27:35;77.28;;;40.42;;
80926;SDS011;70385;44.538;18.532;2024-01-07T10:30:02;81.00;;;40.30;;
80926;SDS011;70385;44.538;18.532;2024-01-07T10:32:29;94.35;;;47.70;;
80926;SDS011;70385;44.538;18.532;2024-01-07T10:35:00;96.50;;;47.50;;
80926;SDS011;70385;44.538;18.532;2024-01-07T10:37:32;82.93;;;43.20;;
80926;SDS011;70385;44.538;18.532;2024-01-07T10:39:59;74.65;;;38.97;;
80926;SDS011;70385;44.538;18.532;2024-01-07T10:42:32;99.13;;;46.40;;
80926;SDS011;70385;44.538;18.532;2024-01-07T10:44:59;83.53;;;44.08;;
80926;SDS011;70385;44.538;18.532;2024-01-07T10:47:28;80.68;;;41.00;;
80926;SDS011;70385;44.538;18.532;2024-01-07T10:49:59;80.63;;;43.13;;
80926;SDS011;70385;44.538;18.532;2024-01-07T10:52:28;60.00;;;33.97;;
80926;SDS011;70385;44.538;18.532;2024-01-07T10:54:57;64.38;;;34.10;;
80926;SDS011;70385;44.538;18.532;2024-01-07T10:57:36;72.38;;;38.50;;
80926;SDS011;70385;44.538;18.532;2024-01-07T11:00:10;58.55;;;33.22;;
80926;SDS011;70385;44.538;18.532;2024-01-07T11:05:47;71.50;;;37.63;;
80926;SDS011;70385;44.538;18.532;2024-01-07T11:10:57;75.45;;;39.38;;
80926;SDS011;70385;44.538;18.532;2024-01-07T11:13:34;71.70;;;38.53;;
80926;SDS011;70385;44.538;18.532;2024-01-07T11:16:03;65.05;;;36.53;;
80926;SDS011;70385;44.538;18.532;2024-01-07T11:18:31;70.35;;;36.95;;
80926;SDS011;70385;44.538;18.532;2024-01-07T11:20:59;81.97;;;41.85;;
80926;SDS011;70385;44.538;18.532;2024-01-07T11:25:59;82.93;;;44.17;;
80926;SDS011;70385;44.538;18.532;2024-01-07T11:28:45;66.70;;;35.97;;
80926;SDS011;70385;44.538;18.532;2024-01-07T11:31:14;68.03;;;37.92;;
80926;SDS011;70385;44.538;18.532;2024-01-07T11:33:42;76.70;;;39.35;;
80926;SDS011;70385;44.538;18.532;2024-01-07T11:36:10;75.50;;;40.55;;
80926;SDS011;70385;44.538;18.532;2024-01-07T11:38:38;78.65;;;41.42;;
80926;SDS011;70385;44.538;18.532;2024-01-07T11:41:11;78.57;;;42.65;;
80926;SDS011;70385;44.538;18.532;2024-01-07T11:43:38;81.15;;;43.25;;
80926;SDS011;70385;44.538;18.532;2024-01-07T11:46:18;89.43;;;50.95;;
80926;SDS011;70385;44.538;18.532;2024-01-07T11:48:45;94.88;;;52.50;;
80926;SDS011;70385;44.538;18.532;2024-01-07T11:51:11;91.72;;;52.10;;
80926;SDS011;70385;44.538;18.532;2024-01-07T11:53:37;100.10;;;54.08;;
80926;SDS011;70385;44.538;18.532;2024-01-07T11:56:03;105.20;;;60.67;;
80926;SDS011;70385;44.538;18.532;2024-01-07T11:58:34;106.88;;;59.65;;
80926;SDS011;70385;44.538;18.532;2024-01-07T12:01:01;108.82;;;60.08;;
80926;SDS011;70385;44.538;18.532;2024-01-07T12:03:28;102.20;;;53.97;;
80926;SDS011;70385;44.538;18.532;2024-01-07T12:05:59;91.70;;;47.47;;
80926;SDS011;70385;44.538;18.532;2024-01-07T12:08:45;106.40;;;52.92;;
80926;SDS011;70385;44.538;18.532;2024-01-07T12:11:14;110.80;;;52.10;;
80926;SDS011;70385;44.538;18.532;2024-01-07T12:13:41;158.52;;;81.03;;
80926;SDS011;70385;44.538;18.532;2024-01-07T12:16:12;134.63;;;70.00;;
80926;SDS011;70385;44.538;18.532;2024-01-07T12:18:39;123.95;;;63.35;;
80926;SDS011;70385;44.538;18.532;2024-01-07T12:21:05;210.43;;;93.53;;
80926;SDS011;70385;44.538;18.532;2024-01-07T12:23:34;104.65;;;56.22;;
80926;SDS011;70385;44.538;18.532;2024-01-07T12:26:08;75.55;;;41.15;;
80926;SDS011;70385;44.538;18.532;2024-01-07T12:28:35;68.28;;;37.40;;
80926;SDS011;70385;44.538;18.532;2024-01-07T12:31:02;72.47;;;39.33;;
80926;SDS011;70385;44.538;18.532;2024-01-07T12:33:29;93.60;;;45.05;;
80926;SDS011;70385;44.538;18.532;2024-01-07T12:35:59;95.18;;;48.05;;
80926;SDS011;70385;44.538;18.532;2024-01-07T12:38:25;95.10;;;49.00;;
80926;SDS011;70385;44.538;18.532;2024-01-07T12:40:54;116.93;;;59.35;;
80926;SDS011;70385;44.538;18.532;2024-01-07T12:43:23;109.03;;;55.53;;
80926;SDS011;70385;44.538;18.532;2024-01-07T12:45:49;179.65;;;81.63;;
80926;SDS011;70385;44.538;18.532;2024-01-07T12:48:15;149.25;;;72.65;;
80926;SDS011;70385;44.538;18.532;2024-01-07T12:50:41;167.77;;;82.97;;
80926;SDS011;70385;44.538;18.532;2024-01-07T12:53:14;142.00;;;69.38;;
80926;SDS011;70385;44.538;18.532;2024-01-07T12:55:41;149.50;;;74.43;;
80926;SDS011;70385;44.538;18.532;2024-01-07T12:58:09;157.82;;;79.32;;
80926;SDS011;70385;44.538;18.532;2024-01-07T13:00:35;158.90;;;75.13;;
80926;SDS011;70385;44.538;18.532;2024-01-07T13:03:06;81.28;;;41.88;;
80926;SDS011;70385;44.538;18.532;2024-01-07T13:05:36;81.55;;;42.70;;
80926;SDS011;70385;44.538;18.532;2024-01-07T13:08:02;57.67;;;30.05;;
80926;SDS011;70385;44.538;18.532;2024-01-07T13:10:28;60.83;;;29.85;;
80926;SDS011;70385;44.538;18.532;2024-01-07T13:12:54;37.85;;;19.35;;
80926;SDS011;70385;44.538;18.532;2024-01-07T13:15:20;21.55;;;12.10;;
80926;SDS011;70385;44.538;18.532;2024-01-07T13:17:46;21.88;;;11.60;;
80926;SDS011;70385;44.538;18.532;2024-01-07T13:20:12;20.92;;;12.90;;
80926;SDS011;70385;44.538;18.532;2024-01-07T13:22:40;27.75;;;14.25;;
80926;SDS011;70385;44.538;18.532;2024-01-07T13:25:06;29.13;;;15.18;;
80926;SDS011;70385;44.538;18.532;2024-01-07T13:27:32;22.48;;;13.23;;
80926;SDS011;70385;44.538;18.532;2024-01-07T13:29:58;26.05;;;13.63;;
80926;SDS011;70385;44.538;18.532;2024-01-07T13:32:24;28.35;;;15.43;;
80926;SDS011;70385;44.538;18.532;2024-01-07T13:34:51;25.75;;;14.18;;
80926;SDS011;70385;44.538;18.532;2024-01-07T13:37:18;29.85;;;16.08;;
80926;SDS011;70385;44.538;18.532;2024-01-07T13:39:45;39.15;;;24.17;;
80926;SDS011;70385;44.538;18.532;2024-01-07T13:42:14;32.70;;;16.58;;
80926;SDS011;70385;44.538;18.532;2024-01-07T13:44:41;41.95;;;21.67;;
80926;SDS011;70385;44.538;18.532;2024-01-07T13:47:14;41.28;;;23.27;;
80926;SDS011;70385;44.538;18.532;2024-01-07T13:49:44;48.97;;;26.35;;
80926;SDS011;70385;44.538;18.532;2024-01-07T13:52:11;54.83;;;30.75;;
80926;SDS011;70385;44.538;18.532;2024-01-07T13:54:37;36.67;;;19.55;;
80926;SDS011;70385;44.538;18.532;2024-01-07T13:57:03;40.03;;;19.77;;
80926;SDS011;70385;44.538;18.532;2024-01-07T13:59:30;47.10;;;22.13;;
80926;SDS011;70385;44.538;18.532;2024-01-07T14:02:00;50.08;;;25.70;;
80926;SDS011;70385;44.538;18.532;2024-01-07T14:04:28;37.15;;;20.20;;
80926;SDS011;70385;44.538;18.532;2024-01-07T14:06:56;36.22;;;17.35;;
80926;SDS011;70385;44.538;18.532;2024-01-07T14:09:23;28.33;;;15.27;;
80926;SDS011;70385;44.538;18.532;2024-01-07T14:11:50;25.38;;;13.88;;